createdAt,value
2022-10-22T00:01:40.676Z,79.51
2022-10-22T00:04:11.551Z,79.57
2022-10-22T00:06:42.855Z,79.56
2022-10-22T00:09:12.953Z,79.68
2022-10-22T00:11:43.536Z,79.64
2022-10-22T00:14:15.710Z,79.72
2022-10-22T00:16:45.758Z,79.67
2022-10-22T00:19:15.845Z,79.53
2022-10-22T00:21:45.866Z,79.60
2022-10-22T00:24:16.796Z,79.78
2022-10-22T00:26:46.931Z,79.74
2022-10-22T00:29:18.873Z,79.76
2022-10-22T00:31:50.772Z,79.86
2022-10-22T00:34:23.090Z,79.80
2022-10-22T00:36:53.164Z,79.87
2022-10-22T00:39:24.523Z,79.95
2022-10-22T00:41:55.557Z,79.96
2022-10-22T00:44:43.958Z,79.97
2022-10-22T00:47:17.893Z,79.90
2022-10-22T00:49:48.138Z,79.78
2022-10-22T00:52:18.155Z,79.93
2022-10-22T00:54:49.072Z,79.98
2022-10-22T00:57:20.501Z,79.95
2022-10-22T00:59:50.803Z,79.91
2022-10-22T01:02:20.879Z,79.98
2022-10-22T01:04:51.749Z,80.09
2022-10-22T01:07:22.921Z,80.01
2022-10-22T01:09:59.610Z,79.97
2022-10-22T01:12:36.771Z,80.12
2022-10-22T01:15:13.371Z,80.06
2022-10-22T01:17:49.141Z,80.20
2022-10-22T01:20:35.637Z,80.15
2022-10-22T01:23:14.867Z,80.26
2022-10-22T01:25:49.197Z,80.09
2022-10-22T01:28:25.034Z,80.15
2022-10-22T01:31:02.443Z,80.34
2022-10-22T01:33:33.918Z,80.27
2022-10-22T01:36:04.389Z,80.22
2022-10-22T01:38:34.998Z,80.25
2022-10-22T01:41:07.931Z,80.36
2022-10-22T01:43:38.054Z,80.29
2022-10-22T01:46:09.605Z,80.28
2022-10-22T01:48:45.371Z,80.52
2022-10-22T01:51:31.569Z,80.66
2022-10-22T01:54:03.652Z,80.59
2022-10-22T01:56:41.981Z,80.65
2022-10-22T01:59:18.563Z,80.65
2022-10-22T02:01:54.002Z,80.60
2022-10-22T02:04:27.009Z,80.70
2022-10-22T02:07:00.089Z,80.59
2022-10-22T02:09:31.268Z,80.69
2022-10-22T02:14:40.916Z,80.65
2022-10-22T02:17:14.796Z,80.73
2022-10-22T02:19:48.453Z,80.80
2022-10-22T02:22:20.402Z,80.82
2022-10-22T02:24:50.574Z,80.77
2022-10-22T02:27:26.059Z,80.86
2022-10-22T02:30:02.674Z,80.88
2022-10-22T02:32:38.300Z,80.85
2022-10-22T02:35:12.034Z,80.95
2022-10-22T02:37:42.847Z,80.90
2022-10-22T02:40:14.025Z,80.92
2022-10-22T02:42:46.020Z,80.96
2022-10-22T02:45:16.403Z,81.03
2022-10-22T02:47:47.637Z,81.04
2022-10-22T02:50:17.853Z,81.02
2022-10-22T02:52:53.380Z,81.09
2022-10-22T02:55:23.428Z,81.10
2022-10-22T02:57:53.488Z,81.26
2022-10-22T03:00:23.609Z,81.35
2022-10-22T03:02:56.127Z,81.33
2022-10-22T03:05:26.209Z,81.23
2022-10-22T03:07:56.305Z,81.26
2022-10-22T03:10:26.367Z,81.19
2022-10-22T03:12:58.141Z,81.32
2022-10-22T03:18:03.526Z,81.42
2022-10-22T03:20:33.504Z,81.46
2022-10-22T03:23:05.190Z,81.39
2022-10-22T03:25:35.701Z,81.44
2022-10-22T03:28:08.364Z,81.46
2022-10-22T03:30:38.633Z,81.44
2022-10-22T03:33:13.605Z,81.51
2022-10-22T03:35:45.796Z,81.62
2022-10-22T03:38:16.829Z,81.65
2022-10-22T03:40:47.370Z,81.73
2022-10-22T03:43:19.687Z,81.76
2022-10-22T03:45:56.323Z,81.85
2022-10-22T03:48:26.469Z,81.86
2022-10-22T03:50:56.476Z,81.87
2022-10-22T03:53:28.193Z,81.93
2022-10-22T03:55:58.249Z,82.04
2022-10-22T03:58:28.337Z,81.98
2022-10-22T04:00:58.380Z,82.01
2022-10-22T04:03:29.255Z,82.09
2022-10-22T04:06:03.458Z,82.12
2022-10-22T04:08:34.071Z,82.25
2022-10-22T04:11:04.452Z,82.29
2022-10-22T04:13:35.457Z,82.20
2022-10-22T04:16:12.455Z,82.16
2022-10-22T04:18:42.634Z,82.24
2022-10-22T04:21:13.928Z,82.31
2022-10-22T04:23:47.968Z,82.34
2022-10-22T04:26:18.822Z,82.36
2022-10-22T04:28:50.807Z,82.31
2022-10-22T04:31:21.902Z,82.31
2022-10-22T04:33:56.041Z,82.36
2022-10-22T04:36:26.569Z,82.37
2022-10-22T04:38:57.706Z,82.30
2022-10-22T04:41:28.945Z,82.45
2022-10-22T04:44:00.442Z,82.36
2022-10-22T04:46:32.454Z,82.41
2022-10-22T04:49:03.953Z,82.46
2022-10-22T04:51:34.125Z,82.57
2022-10-22T04:54:05.934Z,82.59
2022-10-22T04:56:36.028Z,82.86
2022-10-22T04:59:07.118Z,82.77
2022-10-22T05:01:41.701Z,82.75
2022-10-22T05:04:15.665Z,82.78
2022-10-22T05:06:45.769Z,82.82
2022-10-22T05:09:16.522Z,82.88
2022-10-22T05:11:49.215Z,82.91
2022-10-22T05:14:21.037Z,82.95
2022-10-22T05:16:51.522Z,82.84
2022-10-22T05:19:24.164Z,82.96
2022-10-22T05:21:55.151Z,82.87
2022-10-22T05:24:26.298Z,82.92
2022-10-22T05:26:56.961Z,82.94
2022-10-22T05:29:27.336Z,82.92
2022-10-22T05:31:57.426Z,82.85
2022-10-22T05:34:27.597Z,82.95
2022-10-22T05:36:57.647Z,82.80
2022-10-22T05:39:27.901Z,82.88
2022-10-22T05:41:58.611Z,82.95
2022-10-22T05:44:28.670Z,83.03
2022-10-22T05:46:58.761Z,82.84
2022-10-22T05:49:28.789Z,83.11
2022-10-22T05:51:58.887Z,82.97
2022-10-22T05:54:29.892Z,82.88
2022-10-22T05:56:59.955Z,82.83
2022-10-22T05:59:30.050Z,82.81
2022-10-22T06:02:00.280Z,82.96
2022-10-22T06:04:30.476Z,82.81
2022-10-22T06:07:00.579Z,82.86
2022-10-22T06:09:32.372Z,83.00
2022-10-22T06:12:02.455Z,82.82
2022-10-22T06:14:33.916Z,82.87
2022-10-22T06:17:03.963Z,82.88
2022-10-22T06:19:34.079Z,82.97
2022-10-22T06:22:04.488Z,82.83
2022-10-22T06:24:35.507Z,82.76
2022-10-22T06:27:05.546Z,82.82
2022-10-22T06:29:35.637Z,83.03
2022-10-22T06:32:05.922Z,83.00
2022-10-22T06:34:36.084Z,82.89
2022-10-22T06:37:06.131Z,82.92
2022-10-22T06:39:36.205Z,82.84
2022-10-22T06:42:06.409Z,82.90
2022-10-22T06:44:36.565Z,82.69
2022-10-22T06:47:06.828Z,82.69
2022-10-22T06:49:36.870Z,82.65
2022-10-22T06:52:06.940Z,82.87
2022-10-22T06:54:37.183Z,82.82
2022-10-22T06:57:07.252Z,82.60
2022-10-22T06:59:37.682Z,82.57
2022-10-22T07:02:07.780Z,82.31
2022-10-22T07:04:37.817Z,82.18
2022-10-22T07:07:08.360Z,82.19
2022-10-22T07:09:39.571Z,82.15
2022-10-22T07:12:09.717Z,82.26
2022-10-22T07:14:39.798Z,81.98
2022-10-22T07:17:10.103Z,82.16
2022-10-22T07:19:40.141Z,81.81
2022-10-22T07:22:10.199Z,81.60
2022-10-22T07:24:40.371Z,81.53
2022-10-22T07:27:11.026Z,81.47
2022-10-22T07:29:41.944Z,81.20
2022-10-22T07:32:11.940Z,81.37
2022-10-22T07:34:43.913Z,81.31
2022-10-22T07:37:14.086Z,81.22
2022-10-22T07:39:46.747Z,81.32
2022-10-22T07:42:16.940Z,81.41
2022-10-22T07:44:47.039Z,81.32
2022-10-22T07:47:17.081Z,81.32
2022-10-22T07:49:47.144Z,81.33
2022-10-22T07:52:17.202Z,81.28
2022-10-22T07:54:47.257Z,81.26
2022-10-22T07:57:17.326Z,81.00
2022-10-22T07:59:47.480Z,81.05
2022-10-22T08:02:17.732Z,81.03
2022-10-22T08:04:47.872Z,81.09
2022-10-22T08:07:17.950Z,81.06
2022-10-22T08:09:48.056Z,81.10
2022-10-22T08:12:18.111Z,81.23
2022-10-22T08:14:48.210Z,81.36
2022-10-22T08:17:18.206Z,81.23
2022-10-22T08:19:48.305Z,81.31
2022-10-22T08:22:18.313Z,81.12
2022-10-22T08:24:49.072Z,81.00
2022-10-22T08:27:19.042Z,81.13
2022-10-22T08:29:49.063Z,81.14
2022-10-22T08:32:19.446Z,81.17
2022-10-22T08:34:49.599Z,81.11
2022-10-22T08:37:19.620Z,81.25
2022-10-22T08:39:49.725Z,81.25
2022-10-22T08:42:30.899Z,81.43
2022-10-22T08:45:05.164Z,81.61
2022-10-22T08:47:45.338Z,81.39
2022-10-22T08:50:24.652Z,81.33
2022-10-22T08:52:58.204Z,81.12
2022-10-22T08:55:30.270Z,81.29
2022-10-22T08:58:05.804Z,81.05
2022-10-22T09:00:40.306Z,81.18
2022-10-22T09:03:20.309Z,80.94
2022-10-22T09:05:56.303Z,81.13
2022-10-22T09:08:26.514Z,81.13
2022-10-22T09:11:00.526Z,80.94
2022-10-22T09:13:30.989Z,80.96
2022-10-22T09:16:02.724Z,81.08
2022-10-22T09:18:36.469Z,80.99
2022-10-22T09:21:14.603Z,80.90
2022-10-22T09:23:51.811Z,80.97
2022-10-22T09:26:21.893Z,80.91
2022-10-22T09:28:52.508Z,80.98
2022-10-22T09:31:23.383Z,81.09
2022-10-22T09:33:53.530Z,81.26
2022-10-22T09:36:24.366Z,81.27
2022-10-22T09:38:54.714Z,81.10
2022-10-22T09:41:27.927Z,81.05
2022-10-22T09:43:58.391Z,81.15
2022-10-22T09:46:30.851Z,81.27
2022-10-22T09:49:03.085Z,81.26
2022-10-22T09:51:43.155Z,81.35
2022-10-22T09:54:17.719Z,81.34
2022-10-22T09:56:52.445Z,81.34
2022-10-22T09:59:29.982Z,81.43
2022-10-22T10:02:13.672Z,81.53
2022-10-22T10:04:54.405Z,81.61
2022-10-22T10:07:25.961Z,81.78
2022-10-22T10:09:56.170Z,81.88
2022-10-22T10:12:37.324Z,81.82
2022-10-22T10:15:18.235Z,81.86
2022-10-22T10:17:51.889Z,81.88
2022-10-22T10:20:29.553Z,82.06
2022-10-22T10:23:04.548Z,82.03
2022-10-22T10:25:39.669Z,81.86
2022-10-22T10:28:18.492Z,82.01
2022-10-22T10:30:53.007Z,82.03
2022-10-22T10:33:29.192Z,81.99
2022-10-22T10:36:03.164Z,81.82
2022-10-22T10:38:49.794Z,81.89
2022-10-22T10:41:22.850Z,81.68
2022-10-22T10:44:04.428Z,81.77
2022-10-22T10:46:39.563Z,81.94
2022-10-22T10:49:11.528Z,81.90
2022-10-22T10:51:46.385Z,81.92
2022-10-22T10:54:23.000Z,81.88
2022-10-22T10:56:55.499Z,82.01
2022-10-22T10:59:32.717Z,82.14
2022-10-22T11:02:19.004Z,82.12
2022-10-22T11:05:03.528Z,82.04
2022-10-22T11:07:37.797Z,82.33
2022-10-22T11:10:14.658Z,82.24
2022-10-22T11:12:48.915Z,82.38
2022-10-22T11:15:25.122Z,82.22
2022-10-22T11:17:57.715Z,82.41
2022-10-22T11:20:32.502Z,82.54
2022-10-22T11:23:21.746Z,82.38
2022-10-22T11:25:53.323Z,82.51
2022-10-22T11:28:26.934Z,82.53
2022-10-22T11:31:00.198Z,82.58
2022-10-22T11:33:41.391Z,82.64
2022-10-22T11:36:12.118Z,82.63
2022-10-22T11:38:42.474Z,82.61
2022-10-22T11:41:14.645Z,82.77
2022-10-22T11:44:09.181Z,82.74
2022-10-22T11:46:56.043Z,82.53
2022-10-22T11:49:27.510Z,82.56
2022-10-22T11:55:23.317Z,82.36
2022-10-22T11:57:57.882Z,82.22
2022-10-22T12:00:39.403Z,82.24
2022-10-22T12:03:25.100Z,82.22
2022-10-22T12:06:21.046Z,82.08
2022-10-22T12:08:55.270Z,82.23
2022-10-22T12:11:27.753Z,82.41
2022-10-22T12:14:14.633Z,82.32
2022-10-22T12:17:02.234Z,82.10
2022-10-22T12:19:34.041Z,82.05
2022-10-22T12:22:13.794Z,82.13
2022-10-22T12:24:45.667Z,82.27
2022-10-22T12:27:22.720Z,82.07
2022-10-22T12:29:56.666Z,82.20
2022-10-22T12:32:34.419Z,82.37
2022-10-22T12:35:07.731Z,82.27
2022-10-22T12:37:38.377Z,82.23
2022-10-22T12:40:19.003Z,82.33
2022-10-22T12:42:55.826Z,82.33
2022-10-22T12:45:27.999Z,82.15
2022-10-22T12:47:59.861Z,82.40
2022-10-22T12:50:34.064Z,82.39
2022-10-22T12:53:06.043Z,82.31
2022-10-22T12:55:36.103Z,82.32
2022-10-22T12:58:08.025Z,82.33
2022-10-22T13:00:38.116Z,82.63
2022-10-22T13:03:08.361Z,82.66
2022-10-22T13:05:40.004Z,82.77
2022-10-22T13:08:12.276Z,82.76
2022-10-22T13:10:42.978Z,82.85
2022-10-22T13:13:26.586Z,82.83
2022-10-22T13:15:57.007Z,83.00
2022-10-22T13:18:34.052Z,82.94
2022-10-22T13:21:04.208Z,83.00
2022-10-22T13:23:35.184Z,82.98
2022-10-22T13:26:13.050Z,83.06
2022-10-22T13:28:43.763Z,83.18
2022-10-22T13:31:18.056Z,83.12
2022-10-22T13:33:52.604Z,83.30
2022-10-22T13:36:22.814Z,83.10
2022-10-22T13:38:53.222Z,83.26
2022-10-22T13:41:24.948Z,83.23
2022-10-22T13:43:56.531Z,83.27
2022-10-22T13:46:27.212Z,83.31
2022-10-22T13:48:58.915Z,83.15
2022-10-22T13:51:33.200Z,83.24
2022-10-22T13:54:11.536Z,83.26
2022-10-22T13:56:41.648Z,83.21
2022-10-22T13:59:11.821Z,83.34
2022-10-22T14:01:42.155Z,83.03
2022-10-22T14:04:14.793Z,83.02
2022-10-22T14:06:45.228Z,83.13
2022-10-22T14:09:16.583Z,83.02
2022-10-22T14:11:46.754Z,83.03
2022-10-22T14:14:20.154Z,83.04
2022-10-22T14:16:50.296Z,82.97
2022-10-22T14:19:20.404Z,83.16
2022-10-22T14:21:50.605Z,83.17
2022-10-22T14:24:21.678Z,83.25
2022-10-22T14:26:58.700Z,83.32
2022-10-22T14:29:28.904Z,83.42
2022-10-22T14:31:59.016Z,83.24
2022-10-22T14:34:29.891Z,83.40
2022-10-22T14:37:00.265Z,83.35
2022-10-22T14:39:31.146Z,83.49
2022-10-22T14:42:01.238Z,83.30
2022-10-22T14:44:31.417Z,83.38
2022-10-22T14:47:01.675Z,83.54
2022-10-22T14:49:31.820Z,83.64
2022-10-22T14:52:01.873Z,83.34
2022-10-22T14:54:33.299Z,83.38
2022-10-22T14:57:03.901Z,83.36
2022-10-22T14:59:33.966Z,83.25
2022-10-22T15:02:04.107Z,83.46
2022-10-22T15:04:34.326Z,83.48
2022-10-22T15:07:04.473Z,83.56
2022-10-22T15:09:35.107Z,83.49
2022-10-22T15:12:06.201Z,83.46
2022-10-22T15:14:36.408Z,83.56
2022-10-22T15:17:06.606Z,83.67
2022-10-22T15:19:36.704Z,83.71
2022-10-22T15:22:06.984Z,83.76
2022-10-22T15:24:37.047Z,84.09
2022-10-22T15:27:07.150Z,83.92
2022-10-22T15:29:37.354Z,84.21
2022-10-22T15:32:10.514Z,84.10
2022-10-22T15:34:41.563Z,84.42
2022-10-22T15:37:13.497Z,84.42
2022-10-22T15:39:44.407Z,84.38
2022-10-22T15:42:14.879Z,84.48
2022-10-22T15:44:45.180Z,84.49
2022-10-22T15:47:15.694Z,84.42
2022-10-22T15:49:46.010Z,84.50
2022-10-22T15:52:16.236Z,84.50
2022-10-22T15:54:46.429Z,84.55
2022-10-22T15:57:16.652Z,84.51
2022-10-22T15:59:50.200Z,84.52
2022-10-22T16:02:20.387Z,84.65
2022-10-22T16:04:50.642Z,84.72
2022-10-22T16:07:23.888Z,84.71
2022-10-22T16:09:57.804Z,84.77
2022-10-22T16:12:27.935Z,84.79
2022-10-22T16:14:58.141Z,85.03
2022-10-22T16:17:28.363Z,85.25
2022-10-22T16:19:58.631Z,85.43
2022-10-22T16:22:28.810Z,85.48
2022-10-22T16:24:58.980Z,85.40
2022-10-22T16:27:29.219Z,85.25
2022-10-22T16:29:59.431Z,85.29
2022-10-22T16:32:29.598Z,85.16
2022-10-22T16:34:59.839Z,85.16
2022-10-22T16:37:31.377Z,85.29
2022-10-22T16:40:04.458Z,85.46
2022-10-22T16:42:38.258Z,85.53
2022-10-22T16:45:11.306Z,85.41
2022-10-22T16:47:43.789Z,85.46
2022-10-22T16:50:22.951Z,85.33
2022-10-22T16:52:53.080Z,85.45
2022-10-22T16:55:23.334Z,85.40
2022-10-22T16:57:53.662Z,85.28
2022-10-22T17:00:26.434Z,85.39
2022-10-22T17:02:57.015Z,85.40
2022-10-22T17:05:27.306Z,85.35
2022-10-22T17:07:57.425Z,85.41
2022-10-22T17:10:31.075Z,85.61
2022-10-22T17:13:01.221Z,85.53
2022-10-22T17:15:31.487Z,85.76
2022-10-22T17:18:01.975Z,85.66
2022-10-22T17:20:35.525Z,85.62
2022-10-22T17:23:07.007Z,85.76
2022-10-22T17:25:42.226Z,85.80
2022-10-22T17:28:12.751Z,85.82
2022-10-22T17:30:45.200Z,85.77
2022-10-22T17:33:15.345Z,85.78
2022-10-22T17:35:45.413Z,85.77
2022-10-22T17:38:15.483Z,85.88
2022-10-22T17:40:47.138Z,85.87
2022-10-22T17:43:17.229Z,85.80
2022-10-22T17:45:47.639Z,85.89
2022-10-22T17:48:17.660Z,85.87
2022-10-22T17:50:50.410Z,85.90
2022-10-22T17:53:22.133Z,85.84
2022-10-22T17:55:59.275Z,85.85
2022-10-22T17:58:30.296Z,85.75
2022-10-22T18:01:01.246Z,85.80
2022-10-22T18:03:31.356Z,85.78
2022-10-22T18:06:10.157Z,85.70
2022-10-22T18:08:40.533Z,85.58
2022-10-22T18:11:12.303Z,85.63
2022-10-22T18:13:42.361Z,85.67
2022-10-22T18:16:13.412Z,85.77
2022-10-22T18:18:46.205Z,85.83
2022-10-22T18:21:16.662Z,85.84
2022-10-22T18:23:47.188Z,85.94
2022-10-22T18:26:21.418Z,85.81
2022-10-22T18:28:54.799Z,85.95
2022-10-22T18:31:27.000Z,85.92
2022-10-22T18:33:57.423Z,86.01
2022-10-22T18:36:28.635Z,86.13
2022-10-22T18:38:59.643Z,86.13
2022-10-22T18:41:31.699Z,86.02
2022-10-22T18:44:02.691Z,86.12
2022-10-22T18:46:34.951Z,86.27
2022-10-22T18:49:06.992Z,86.30
2022-10-22T18:51:38.183Z,86.45
2022-10-22T18:54:22.235Z,86.33
2022-10-22T18:56:53.779Z,86.31
2022-10-22T18:59:24.768Z,86.40
2022-10-22T19:01:55.515Z,86.25
2022-10-22T19:04:27.141Z,86.33
2022-10-22T19:06:57.624Z,86.48
2022-10-22T19:09:27.736Z,86.48
2022-10-22T19:11:58.862Z,86.61
2022-10-22T19:14:28.891Z,86.56
2022-10-22T19:16:58.936Z,86.46
2022-10-22T19:19:29.024Z,86.48
2022-10-22T19:22:00.412Z,86.50
2022-10-22T19:24:30.485Z,86.39
2022-10-22T19:27:00.879Z,86.42
2022-10-22T19:29:30.938Z,86.46
2022-10-22T19:32:01.159Z,86.27
2022-10-22T19:34:32.397Z,86.28
2022-10-22T19:37:02.441Z,86.34
2022-10-22T19:39:32.443Z,86.12
2022-10-22T19:42:04.303Z,86.12
2022-10-22T19:44:34.755Z,86.25
2022-10-22T19:47:04.898Z,86.12
2022-10-22T19:49:35.982Z,86.27
2022-10-22T19:52:06.882Z,86.16
2022-10-22T19:54:40.849Z,86.21
2022-10-22T19:57:12.253Z,86.27
2022-10-22T19:59:42.368Z,86.18
2022-10-22T20:02:14.287Z,86.21
2022-10-22T20:04:49.140Z,86.04
2022-10-22T20:07:20.571Z,86.25
2022-10-22T20:09:50.781Z,86.27
2022-10-22T20:12:21.704Z,86.14
2022-10-22T20:14:52.508Z,86.16
2022-10-22T20:17:22.583Z,86.09
2022-10-22T20:19:52.724Z,86.28
2022-10-22T20:22:22.750Z,86.34
2022-10-22T20:24:52.847Z,86.25
2022-10-22T20:27:23.041Z,86.22
2022-10-22T20:29:53.157Z,86.23
2022-10-22T20:32:24.986Z,86.19
2022-10-22T20:34:56.452Z,86.32
2022-10-22T20:37:26.907Z,86.23
2022-10-22T20:39:57.136Z,86.25
2022-10-22T20:42:28.068Z,86.19
2022-10-22T20:44:58.115Z,86.13
2022-10-22T20:47:39.149Z,86.20
2022-10-22T20:50:21.311Z,86.14
2022-10-22T20:52:51.459Z,86.20
2022-10-22T20:55:21.603Z,86.23
2022-10-22T20:57:51.751Z,86.10
2022-10-22T21:00:21.945Z,86.30
2022-10-22T21:02:52.004Z,86.36
2022-10-22T21:05:22.031Z,86.27
2022-10-22T21:07:52.058Z,86.20
2022-10-22T21:10:31.476Z,86.25
2022-10-22T21:13:02.629Z,86.43
2022-10-22T21:15:33.501Z,86.45
2022-10-22T21:18:03.556Z,86.20
2022-10-22T21:20:33.635Z,86.20
2022-10-22T21:23:05.297Z,86.19
2022-10-22T21:25:38.347Z,86.19
2022-10-22T21:28:10.647Z,86.21
2022-10-22T21:30:46.614Z,86.28
2022-10-22T21:33:17.617Z,86.13
2022-10-22T21:35:52.411Z,86.18
2022-10-22T21:38:23.068Z,86.30
2022-10-22T21:40:53.098Z,86.38
2022-10-22T21:43:23.221Z,86.34
2022-10-22T21:45:53.285Z,86.16
2022-10-22T21:48:23.377Z,86.27
2022-10-22T21:50:54.223Z,86.37
2022-10-22T21:53:25.890Z,86.11
2022-10-22T21:55:55.882Z,86.25
2022-10-22T21:58:26.749Z,86.25
2022-10-22T22:00:58.469Z,86.33
2022-10-22T22:03:30.348Z,86.19
2022-10-22T22:06:01.234Z,86.24
2022-10-22T22:08:31.483Z,86.28
2022-10-22T22:11:05.751Z,86.29
2022-10-22T22:13:37.812Z,86.32
2022-10-22T22:16:09.768Z,86.37
2022-10-22T22:18:40.493Z,86.22
2022-10-22T22:21:11.595Z,86.35
2022-10-22T22:23:43.216Z,86.17
2022-10-22T22:26:14.216Z,86.12
2022-10-22T22:28:44.336Z,86.04
2022-10-22T22:31:15.546Z,85.97
2022-10-22T22:33:47.250Z,85.99
2022-10-22T22:36:17.307Z,85.81
2022-10-22T22:38:47.371Z,85.78
2022-10-22T22:41:17.364Z,85.68
2022-10-22T22:43:49.067Z,85.59
2022-10-22T22:46:19.093Z,85.53
2022-10-22T22:48:50.228Z,85.44
2022-10-22T22:51:20.261Z,85.63
2022-10-22T22:53:51.092Z,85.56
2022-10-22T22:56:22.264Z,85.42
2022-10-22T22:58:52.865Z,85.42
2022-10-22T23:01:24.061Z,85.38
2022-10-22T23:03:56.977Z,85.25
2022-10-22T23:06:28.622Z,85.35
2022-10-22T23:08:59.636Z,85.55
2022-10-22T23:11:30.204Z,85.41
2022-10-22T23:14:01.018Z,85.42
2022-10-22T23:16:34.771Z,85.32
2022-10-22T23:19:05.738Z,85.31
2022-10-22T23:21:36.603Z,85.46
2022-10-22T23:24:08.289Z,85.31
2022-10-22T23:26:39.252Z,85.29
2022-10-22T23:29:11.398Z,85.27
2022-10-22T23:31:41.842Z,85.28
2022-10-22T23:34:13.641Z,85.36
2022-10-22T23:36:43.680Z,85.24
2022-10-22T23:39:16.006Z,85.28
2022-10-22T23:41:46.191Z,85.24
2022-10-22T23:44:16.538Z,85.35
2022-10-22T23:46:46.564Z,85.32
2022-10-22T23:49:17.094Z,85.27
2022-10-22T23:51:47.120Z,85.30
2022-10-22T23:54:18.710Z,85.44
2022-10-22T23:56:48.755Z,85.41
2022-10-22T23:59:19.823Z,85.45
